Terminal Aerodrome Forecast
Issued by NWS

Home | Current Version | Previous Version | Text Only | Print | Product List | Glossary Off
Versions: 1 2 3 4 5 6 7 8 9 10 11 12 13 14 15 16 17 18 19 20 21 22 23 24 25

000
FTUS43 KBIS 281700
TAFJMS
TAF
KJMS 281739Z 2818/2918 18008KT P6SM VCSH BKN012 OVC020
      TEMPO 2818/2819 OVC009
     FM282200 16009KT P6SM SCT020 OVC100
      TEMPO 2822/2902 BKN020
     FM290800 22005KT P6SM VCFG SCT002
     FM291500 28008KT P6SM SCT100=

USA.gov is the U.S. government's official web portal to all federal, state and local government web resources and services.